Time,TemperatureF,DewpointF,PressureIn,WindDirection,WindDirectionDegrees,WindSpeedMPH,WindSpeedGustMPH,Humidity,HourlyPrecipIn,Conditions,Clouds,dailyrainin,SoftwareType,DateUTC
2013-07-14 00:05:00,74.0,71.0,29.96,South,187,0.0,-999.0,89,-99.99,,,1.44,weatherlink.com 1.10,2013-07-14 04:05:00,
2013-07-14 00:20:00,73.9,71.0,29.96,South,187,2.0,-999.0,90,-99.99,,,1.44,weatherlink.com 1.10,2013-07-14 04:20:00,
2013-07-14 00:35:00,73.7,71.0,29.96,South,186,4.0,-999.0,90,-99.99,,,0.00,weatherlink.com 1.10,2013-07-14 04:35:00,
2013-07-14 00:50:00,73.5,71.0,29.96,SSW,200,0.0,-999.0,91,-99.99,,,0.00,weatherlink.com 1.10,2013-07-14 04:50:00,
2013-07-14 01:05:00,73.6,71.0,29.96,SSW,207,3.0,-999.0,91,-99.99,,,0.00,weatherlink.com 1.10,2013-07-14 05:05:00,
2013-07-14 01:20:00,73.5,71.0,29.95,South,188,0.0,-999.0,92,-99.99,,,0.00,weatherlink.com 1.10,2013-07-14 05:20:00,
2013-07-14 01:35:00,73.7,71.0,29.95,South,182,1.0,-999.0,92,-99.99,,,0.00,weatherlink.com 1.10,2013-07-14 05:35:00,
2013-07-14 01:50:00,73.8,71.0,29.95,SW,223,3.0,-999.0,92,-99.99,,,0.00,weatherlink.com 1.10,2013-07-14 05:50:00,
2013-07-14 02:05:00,74.0,72.0,29.95,NW,318,2.0,-999.0,92,-99.99,,,0.00,weatherlink.com 1.10,2013-07-14 06:05:00,
2013-07-14 02:20:00,74.0,72.0,29.94,SW,223,0.0,-999.0,92,-99.99,,,0.00,weatherlink.com 1.10,2013-07-14 06:20:00,
2013-07-14 02:35:00,74.1,72.0,29.94,SSW,200,2.0,-999.0,92,-99.99,,,0.00,weatherlink.com 1.10,2013-07-14 06:35:00,
2013-07-14 02:50:00,74.1,72.0,29.94,South,184,0.0,-999.0,92,-99.99,,,0.00,weatherlink.com 1.10,2013-07-14 06:50:00,
2013-07-14 03:05:00,74.0,72.0,29.94,South,188,0.0,-999.0,92,-99.99,,,0.00,weatherlink.com 1.10,2013-07-14 07:05:00,
2013-07-14 03:20:00,73.9,72.0,29.94,SSW,192,0.0,-999.0,92,-99.99,,,0.00,weatherlink.com 1.10,2013-07-14 07:20:00,
2013-07-14 03:35:00,73.9,72.0,29.94,WSW,242,3.0,-999.0,92,-99.99,,,0.00,weatherlink.com 1.10,2013-07-14 07:35:00,
2013-07-14 03:50:00,73.8,71.0,29.93,SSW,192,2.0,-999.0,92,-99.99,,,0.00,weatherlink.com 1.10,2013-07-14 07:50:00,
2013-07-14 04:05:00,73.7,71.0,29.93,SW,215,0.0,-999.0,92,-99.99,,,0.00,weatherlink.com 1.10,2013-07-14 08:05:00,
2013-07-14 04:20:00,73.6,71.0,29.93,SSW,200,1.0,-999.0,92,-99.99,,,0.00,weatherlink.com 1.10,2013-07-14 08:20:00,
2013-07-14 04:35:00,73.4,71.0,29.93,SSE,168,0.0,-999.0,92,-99.99,,,0.00,weatherlink.com 1.10,2013-07-14 08:35:00,
2013-07-14 04:50:00,73.2,71.0,29.94,SSW,199,0.0,-999.0,93,-99.99,,,0.00,weatherlink.com 1.10,2013-07-14 08:50:00,
2013-07-14 05:05:00,73.1,71.0,29.93,SSW,202,1.0,-999.0,93,-99.99,,,0.00,weatherlink.com 1.10,2013-07-14 09:05:00,
2013-07-14 05:20:00,72.9,71.0,29.94,South,184,0.0,-999.0,93,-99.99,,,0.00,weatherlink.com 1.10,2013-07-14 09:20:00,
2013-07-14 05:35:00,72.7,71.0,29.94,SSW,201,0.0,-999.0,93,-99.99,,,0.00,weatherlink.com 1.10,2013-07-14 09:35:00,
2013-07-14 05:50:00,72.5,71.0,29.94,South,183,2.0,-999.0,94,-99.99,,,0.00,weatherlink.com 1.10,2013-07-14 09:50:00,
2013-07-14 06:05:00,72.5,71.0,29.95,SSE,162,2.0,-999.0,94,-99.99,,,0.00,weatherlink.com 1.10,2013-07-14 10:05:00,
2013-07-14 06:20:00,72.2,70.0,29.95,South,175,4.0,-999.0,94,-99.99,,,0.00,weatherlink.com 1.10,2013-07-14 10:20:00,
2013-07-14 06:36:00,72.1,70.0,29.95,SSW,195,4.0,-999.0,94,-99.99,,,0.00,weatherlink.com 1.10,2013-07-14 10:36:00,
2013-07-14 06:51:00,-999.0,-99.9,29.95,North,-999,-999.0,-999.0,-999,-99.99,,,0.00,weatherlink.com 1.10,2013-07-14 10:51:00,
2013-07-14 07:06:00,-999.0,-99.9,29.96,North,-999,-999.0,-999.0,-999,-99.99,,,0.00,weatherlink.com 1.10,2013-07-14 11:06:00,
2013-07-14 07:21:00,-999.0,-99.9,29.96,North,-999,-999.0,-999.0,-999,-99.99,,,0.00,weatherlink.com 1.10,2013-07-14 11:21:00,
2013-07-14 07:38:00,72.0,71.0,29.96,South,189,1.0,-999.0,95,-99.99,,,0.00,weatherlink.com 1.10,2013-07-14 11:38:00,
2013-07-14 07:54:00,72.4,71.0,29.97,South,172,6.0,-999.0,95,-99.99,,,0.00,weatherlink.com 1.10,2013-07-14 11:54:00,
2013-07-14 08:10:00,72.8,71.0,29.98,SSE,165,1.0,-999.0,95,-99.99,,,0.00,weatherlink.com 1.10,2013-07-14 12:10:00,
2013-07-14 08:27:00,73.5,72.0,29.98,South,184,3.0,-999.0,95,-99.99,,,0.00,weatherlink.com 1.10,2013-07-14 12:27:00,
2013-07-14 08:43:00,74.5,73.0,29.99,SSW,213,0.0,-999.0,94,-99.99,,,0.00,weatherlink.com 1.10,2013-07-14 12:43:00,
2013-07-14 09:00:00,75.9,73.0,30.00,ESE,116,6.0,-999.0,91,-99.99,,,0.00,weatherlink.com 1.10,2013-07-14 13:00:00,
2013-07-14 09:17:00,77.1,73.0,30.00,South,171,2.0,-999.0,88,-99.99,,,0.00,weatherlink.com 1.10,2013-07-14 13:17:00,
2013-07-14 09:33:00,78.1,74.0,30.00,SSW,208,2.0,-999.0,86,-99.99,,,0.00,weatherlink.com 1.10,2013-07-14 13:33:00,
2013-07-14 09:49:00,79.2,74.0,30.01,SSW,212,3.0,-999.0,84,-99.99,,,0.00,weatherlink.com 1.10,2013-07-14 13:49:00,
2013-07-14 10:06:00,81.1,74.0,30.01,SSW,197,0.0,-999.0,79,-99.99,,,0.00,weatherlink.com 1.10,2013-07-14 14:06:00,
2013-07-14 10:23:00,81.8,74.0,30.00,South,179,1.0,-999.0,78,-99.99,,,0.00,weatherlink.com 1.10,2013-07-14 14:23:00,
2013-07-14 10:39:00,82.8,75.0,30.01,SSW,209,0.0,-999.0,76,-99.99,,,0.00,weatherlink.com 1.10,2013-07-14 14:39:00,
2013-07-14 10:55:00,83.0,74.0,30.02,WSW,241,4.0,-999.0,75,-99.99,,,0.00,weatherlink.com 1.10,2013-07-14 14:55:00,
2013-07-14 11:12:00,82.3,74.0,30.02,South,191,2.0,-999.0,76,-99.99,,,0.00,weatherlink.com 1.10,2013-07-14 15:12:00,
2013-07-14 11:28:00,83.4,75.0,30.01,SW,219,0.0,-999.0,75,-99.99,,,0.00,weatherlink.com 1.10,2013-07-14 15:28:00,
2013-07-14 11:44:00,86.0,75.0,30.01,SW,221,1.0,-999.0,69,-99.99,,,0.00,weatherlink.com 1.10,2013-07-14 15:44:00,
2013-07-14 12:02:00,86.5,75.0,30.02,SSW,200,4.0,-999.0,68,-99.99,,,0.00,weatherlink.com 1.10,2013-07-14 16:02:00,
2013-07-14 12:18:00,88.0,75.0,30.02,South,173,5.0,-999.0,65,-99.99,,,0.00,weatherlink.com 1.10,2013-07-14 16:18:00,
2013-07-14 12:34:00,86.6,74.0,30.01,SSE,168,2.0,-999.0,66,-99.99,,,0.00,weatherlink.com 1.10,2013-07-14 16:34:00,
2013-07-14 12:51:00,87.8,74.0,30.00,SSE,165,8.0,-999.0,64,-99.99,,,0.00,weatherlink.com 1.10,2013-07-14 16:51:00,
2013-07-14 13:07:00,86.8,74.0,30.00,SE,143,2.0,-999.0,65,-99.99,,,0.00,weatherlink.com 1.10,2013-07-14 17:07:00,
2013-07-14 13:23:00,87.7,74.0,30.00,South,178,6.0,-999.0,64,-99.99,,,0.00,weatherlink.com 1.10,2013-07-14 17:23:00,
2013-07-14 13:40:00,89.3,75.0,30.00,SSE,166,2.0,-999.0,62,-99.99,,,0.00,weatherlink.com 1.10,2013-07-14 17:40:00,
2013-07-14 13:56:00,87.1,73.0,29.99,South,179,9.0,-999.0,64,-99.99,,,0.00,weatherlink.com 1.10,2013-07-14 17:56:00,
2013-07-14 14:12:00,81.8,74.0,30.00,South,180,12.0,-999.0,76,-99.99,,,0.00,weatherlink.com 1.10,2013-07-14 18:12:00,
2013-07-14 14:30:00,79.0,73.0,30.00,ESE,114,6.0,-999.0,81,-99.99,,,0.00,weatherlink.com 1.10,2013-07-14 18:30:00,
2013-07-14 14:45:00,76.2,72.0,30.00,ESE,111,8.0,-999.0,87,-99.99,,,0.00,weatherlink.com 1.10,2013-07-14 18:45:00,
2013-07-14 15:02:00,75.9,73.0,30.00,SE,131,7.0,-999.0,90,-99.99,,,0.00,weatherlink.com 1.10,2013-07-14 19:02:00,
2013-07-14 15:18:00,76.7,73.0,30.01,SSE,155,9.0,-999.0,87,-99.99,,,0.00,weatherlink.com 1.10,2013-07-14 19:18:00,
2013-07-14 15:35:00,78.4,75.0,30.01,SSE,153,2.0,-999.0,89,-99.99,,,0.00,weatherlink.com 1.10,2013-07-14 19:35:00,
2013-07-14 15:51:00,78.7,75.0,30.01,SE,144,10.0,-999.0,88,-99.99,,,0.00,weatherlink.com 1.10,2013-07-14 19:51:00,
2013-07-14 16:07:00,78.7,75.0,30.00,SSE,150,10.0,-999.0,87,-99.99,,,0.00,weatherlink.com 1.10,2013-07-14 20:07:00,
2013-07-14 16:24:00,79.3,75.0,30.00,SSE,162,12.0,-999.0,85,-99.99,,,0.00,weatherlink.com 1.10,2013-07-14 20:24:00,
2013-07-14 16:41:00,79.4,74.0,30.00,South,188,3.0,-999.0,83,-99.99,,,0.00,weatherlink.com 1.10,2013-07-14 20:41:00,
2013-07-14 16:57:00,79.4,74.0,30.01,SSE,168,8.0,-999.0,82,-99.99,,,0.00,weatherlink.com 1.10,2013-07-14 20:57:00,
2013-07-14 17:13:00,78.7,74.0,30.01,South,172,6.0,-999.0,84,-99.99,,,0.00,weatherlink.com 1.10,2013-07-14 21:13:00,
2013-07-14 17:28:00,78.4,74.0,30.01,SSE,162,5.0,-999.0,86,-99.99,,,0.00,weatherlink.com 1.10,2013-07-14 21:28:00,
2013-07-14 17:43:00,78.0,74.0,30.00,SE,138,2.0,-999.0,87,-99.99,,,0.00,weatherlink.com 1.10,2013-07-14 21:43:00,
2013-07-14 17:58:00,77.6,74.0,30.00,ESE,114,2.0,-999.0,88,-99.99,,,0.00,weatherlink.com 1.10,2013-07-14 21:58:00,
2013-07-14 18:13:00,77.8,74.0,30.00,SE,128,4.0,-999.0,89,-99.99,,,0.00,weatherlink.com 1.10,2013-07-14 22:13:00,
2013-07-14 18:28:00,78.2,74.0,30.00,SE,136,6.0,-999.0,87,-99.99,,,0.00,weatherlink.com 1.10,2013-07-14 22:28:00,
2013-07-14 18:43:00,77.8,73.0,30.00,South,174,5.0,-999.0,85,-99.99,,,0.00,weatherlink.com 1.10,2013-07-14 22:43:00,
2013-07-14 18:58:00,76.3,72.0,30.00,SE,134,4.0,-999.0,85,-99.99,,,0.00,weatherlink.com 1.10,2013-07-14 22:58:00,
2013-07-14 19:13:00,75.4,71.0,30.01,South,175,8.0,-999.0,86,-99.99,,,0.00,weatherlink.com 1.10,2013-07-14 23:13:00,
2013-07-14 19:28:00,75.5,72.0,30.00,SE,141,9.0,-999.0,89,-99.99,,,0.00,weatherlink.com 1.10,2013-07-14 23:28:00,
2013-07-14 19:43:00,75.5,73.0,30.00,SSE,156,0.0,-999.0,90,-99.99,,,0.00,weatherlink.com 1.10,2013-07-14 23:43:00,
2013-07-14 19:58:00,75.5,73.0,30.01,SSE,162,7.0,-999.0,90,-99.99,,,0.00,weatherlink.com 1.10,2013-07-14 23:58:00,
2013-07-14 20:13:00,75.1,72.0,30.02,SSW,205,1.0,-999.0,89,-99.99,,,0.00,weatherlink.com 1.10,2013-07-15 00:13:00,
2013-07-14 20:28:00,74.8,72.0,30.02,South,175,9.0,-999.0,90,-99.99,,,0.00,weatherlink.com 1.10,2013-07-15 00:28:00,
2013-07-14 20:43:00,74.5,72.0,30.03,South,173,8.0,-999.0,90,-99.99,,,0.00,weatherlink.com 1.10,2013-07-15 00:43:00,
2013-07-14 20:58:00,74.2,71.0,30.03,SSW,196,1.0,-999.0,90,-99.99,,,0.00,weatherlink.com 1.10,2013-07-15 00:58:00,
2013-07-14 21:13:00,73.9,71.0,30.03,SSW,207,0.0,-999.0,91,-99.99,,,0.00,weatherlink.com 1.10,2013-07-15 01:13:00,
2013-07-14 21:28:00,73.9,71.0,30.04,SW,216,2.0,-999.0,91,-99.99,,,0.00,weatherlink.com 1.10,2013-07-15 01:28:00,
2013-07-14 21:43:00,73.8,71.0,30.04,SW,223,0.0,-999.0,91,-99.99,,,0.00,weatherlink.com 1.10,2013-07-15 01:43:00,
2013-07-14 21:58:00,73.7,71.0,30.05,SW,223,0.0,-999.0,92,-99.99,,,0.00,weatherlink.com 1.10,2013-07-15 01:58:00,
2013-07-14 22:13:00,73.6,71.0,30.05,SSW,204,1.0,-999.0,92,-99.99,,,0.00,weatherlink.com 1.10,2013-07-15 02:13:00,
2013-07-14 22:28:00,73.5,71.0,30.06,SSE,161,1.0,-999.0,92,-99.99,,,0.00,weatherlink.com 1.10,2013-07-15 02:28:00,
2013-07-14 22:43:00,73.6,72.0,30.06,SE,133,2.0,-999.0,93,-99.99,,,0.00,weatherlink.com 1.10,2013-07-15 02:43:00,
2013-07-14 22:58:00,73.4,71.0,30.05,SE,132,4.0,-999.0,93,-99.99,,,0.00,weatherlink.com 1.10,2013-07-15 02:58:00,
2013-07-14 23:13:00,73.3,71.0,30.05,ESE,113,5.0,-999.0,93,-99.99,,,0.00,weatherlink.com 1.10,2013-07-15 03:13:00,
2013-07-14 23:28:00,73.1,71.0,30.05,SE,137,1.0,-999.0,93,-99.99,,,0.00,weatherlink.com 1.10,2013-07-15 03:28:00,
2013-07-14 23:44:00,73.0,71.0,30.05,SSE,157,1.0,-999.0,93,-99.99,,,0.00,weatherlink.com 1.10,2013-07-15 03:44:00,
2013-07-14 23:59:00,73.0,71.0,30.05,South,180,0.0,-999.0,93,-99.99,,,0.00,weatherlink.com 1.10,2013-07-15 03:59:00,